Time;durP1;ratioP1;P1;durP2;ratioP2;P2;SDS_P1;SDS_P2;PMS_P1;PMS_P2;Temp;Humidity;BMP_temperature;BMP_pressure;BME280_temperature;BME280_humidity;BME280_pressure;Samples;Min_cycle;Max_cycle;Signal;HPM_P1;HPM_P2
2022/06/25 00:01:44;;;;;;;6.38;3.03;;;;;;;21.08;69.03;98283.59;5027128;28;20473;-77
2022/06/25 00:05:27;;;;;;;6.68;2.50;;;;;;;20.90;69.26;98280.94;5021510;28;20043;-78
2022/06/25 00:06:54;;;;;;;2.45;2.25;;;;;;;20.89;69.79;98292.94;5029883;28;20021;-78
2022/06/25 00:09:20;;;;;;;7.10;2.90;;;;;;;20.81;69.79;98296.50;5043513;28;20083;-78
2022/06/25 00:14:29;;;;;;;2.35;2.15;;;;;;;20.80;69.41;98278.63;5028174;28;20528;-77
2022/06/25 00:16:54;;;;;;;5.57;2.78;;;;;;;20.87;69.47;98286.25;5026602;28;20116;-77
2022/06/25 00:19:20;;;;;;;2.70;2.47;;;;;;;20.71;69.59;98277.88;5028771;28;20025;-77
2022/06/25 00:21:45;;;;;;;7.28;2.85;;;;;;;20.86;69.27;98292.78;5009825;28;20132;-77
2022/06/25 00:24:11;;;;;;;2.90;2.70;;;;;;;20.72;69.64;98289.53;5027556;28;20037;-77
2022/06/25 00:26:37;;;;;;;3.63;2.60;;;;;;;20.70;69.27;98281.72;5025124;28;20033;-77
2022/06/25 00:29:03;;;;;;;4.38;2.67;;;;;;;20.76;69.36;98299.41;5014589;28;20034;-77
2022/06/25 00:31:28;;;;;;;4.03;2.78;;;;;;;20.67;69.11;98282.38;5026582;28;20095;-77
2022/06/25 00:33:54;;;;;;;4.80;3.05;;;;;;;20.57;69.14;98274.63;5010934;28;20038;-77
2022/06/25 00:36:19;;;;;;;3.80;3.42;;;;;;;20.58;69.78;98297.88;5007623;28;20485;-77
2022/06/25 00:38:44;;;;;;;2.90;2.70;;;;;;;20.51;69.87;98311.16;5025486;28;20037;-78
2022/06/25 00:41:12;;;;;;;3.40;2.60;;;;;;;20.63;69.43;98311.28;5025639;28;20041;-77
2022/06/25 00:43:39;;;;;;;3.83;3.42;;;;;;;20.51;69.76;98303.03;5023581;28;20127;-77
2022/06/25 00:46:05;;;;;;;4.32;2.58;;;;;;;20.54;69.63;98302.38;5009701;28;20037;-77
2022/06/25 00:48:30;;;;;;;4.25;2.53;;;;;;;20.25;70.60;98305.03;5025957;28;20044;-77
2022/06/25 00:51:01;;;;;;;4.57;2.97;;;;;;;19.60;73.40;98310.72;5024788;28;20366;-77
2022/06/25 00:53:32;;;;;;;3.45;3.15;;;;;;;19.13;74.71;98296.19;5025666;28;20188;-77
2022/06/25 00:56:03;;;;;;;3.55;3.25;;;;;;;18.91;76.17;98296.38;5009897;28;20037;-77
2022/06/25 00:58:31;;;;;;;3.33;3.00;;;;;;;18.59;77.33;98294.84;5028177;28;20405;-77
2022/06/25 01:00:59;;;;;;;5.15;2.97;;;;;;;19.86;71.45;98299.88;5027218;28;20033;-78
2022/06/25 01:03:25;;;;;;;3.55;2.70;;;;;;;20.15;70.35;98305.38;5026216;28;20121;-77
2022/06/25 01:05:51;;;;;;;4.65;3.15;;;;;;;20.28;70.12;98314.44;5025367;28;20033;-77
2022/06/25 01:08:18;;;;;;;3.10;2.80;;;;;;;20.39;69.14;98300.22;5040996;28;20076;-77
2022/06/25 01:10:44;;;;;;;6.57;2.92;;;;;;;20.41;69.41;98306.09;5022631;28;20440;-77
2022/06/25 01:13:09;;;;;;;3.10;2.80;;;;;;;20.36;69.33;98308.19;5040499;28;20030;-77
2022/06/25 01:15:35;;;;;;;3.80;3.22;;;;;;;20.42;69.56;98317.75;5008313;28;20424;-77
2022/06/25 01:18:00;;;;;;;3.72;2.72;;;;;;;20.35;69.59;98320.97;5021054;28;20526;-78
2022/06/25 01:20:26;;;;;;;3.92;2.38;;;;;;;20.29;69.53;98326.88;5026708;28;20029;-77
2022/06/25 01:22:53;;;;;;;2.50;2.30;;;;;;;20.22;69.90;98321.16;5023551;28;20051;-77
2022/06/25 01:25:18;;;;;;;3.80;2.80;;;;;;;20.02;70.33;98314.50;5025887;28;20029;-77
2022/06/25 01:27:44;;;;;;;2.75;2.40;;;;;;;20.17;69.69;98319.41;5022963;28;20056;-77
2022/06/25 01:30:12;;;;;;;3.13;2.70;;;;;;;20.31;69.90;98330.88;5024858;28;20034;-77
2022/06/25 01:32:38;;;;;;;3.20;2.60;;;;;;;20.29;69.86;98322.25;5021831;28;20478;-77
2022/06/25 01:35:04;;;;;;;2.63;2.42;;;;;;;20.36;69.88;98322.53;5027468;28;20126;-77
2022/06/25 01:37:30;;;;;;;4.45;2.90;;;;;;;20.32;69.89;98323.50;5023852;28;20083;-77
2022/06/25 01:39:57;;;;;;;5.28;2.70;;;;;;;20.25;70.02;98326.72;5042377;28;20041;-77
2022/06/25 01:45:09;;;;;;;2.83;2.63;;;;;;;19.48;73.63;98326.03;5017576;28;20040;-78
2022/06/25 01:47:35;;;;;;;5.05;2.50;;;;;;;19.88;71.71;98347.19;5024266;28;20025;-77
2022/06/25 01:50:00;;;;;;;3.40;2.70;;;;;;;19.55;73.14;98332.56;5009590;28;20052;-77
2022/06/25 01:52:25;;;;;;;3.95;3.55;;;;;;;19.66;73.57;98343.88;5007730;28;20459;-77
2022/06/25 01:54:51;;;;;;;3.92;2.40;;;;;;;19.73;72.30;98346.88;5025788;28;20037;-77
2022/06/25 01:57:16;;;;;;;3.42;3.05;;;;;;;19.57;74.26;98349.28;5007527;28;20029;-77
2022/06/25 01:59:45;;;;;;;3.08;2.78;;;;;;;19.48;74.77;98353.91;5026921;28;20037;-77
2022/06/25 02:02:10;;;;;;;3.42;2.45;;;;;;;19.67;72.80;98346.25;5009422;28;20033;-78
2022/06/25 02:04:35;;;;;;;3.22;2.38;;;;;;;19.70;71.75;98352.94;5036247;28;20835;-77
2022/06/25 02:07:01;;;;;;;3.25;2.45;;;;;;;19.59;72.83;98347.06;5020736;28;20034;-77
2022/06/25 02:09:26;;;;;;;6.45;2.70;;;;;;;19.59;73.40;98359.81;5021475;28;20029;-77
2022/06/25 02:11:52;;;;;;;3.00;2.80;;;;;;;19.71;72.49;98355.31;5023040;28;20112;-77
2022/06/25 02:14:17;;;;;;;4.75;2.72;;;;;;;19.95;72.34;98366.47;5024705;28;20045;-77
2022/06/25 02:16:42;;;;;;;2.95;2.67;;;;;;;20.07;71.00;98369.28;5043564;28;20033;-77
2022/06/25 02:19:08;;;;;;;2.13;1.98;;;;;;;20.21;70.30;98368.34;5024866;28;20037;-77
2022/06/25 02:21:35;;;;;;;4.68;2.92;;;;;;;20.16;70.77;98380.91;5030070;28;20021;-77
2022/06/25 02:24:01;;;;;;;2.40;2.20;;;;;;;20.05;70.96;98384.31;5008623;28;20025;-77
2022/06/25 02:26:26;;;;;;;4.18;2.20;;;;;;;19.91;71.15;98379.06;5021276;28;20444;-77
2022/06/25 02:28:51;;;;;;;2.78;2.05;;;;;;;20.10;70.31;98384.13;5007097;28;20060;-77
2022/06/25 02:31:17;;;;;;;2.40;2.20;;;;;;;20.27;70.29;98392.25;4991437;28;20170;-77
2022/06/25 02:33:42;;;;;;;3.13;2.83;;;;;;;20.29;70.28;98392.72;5024972;28;20437;-77
2022/06/25 02:36:08;;;;;;;2.75;2.45;;;;;;;20.24;70.37;98384.78;5021188;28;21448;-77
2022/06/25 02:38:33;;;;;;;2.70;2.50;;;;;;;20.21;70.82;98390.84;5024773;28;20033;-78
2022/06/25 02:40:58;;;;;;;3.90;2.55;;;;;;;20.25;70.25;98385.59;5021510;28;20481;-77
2022/06/25 02:43:27;;;;;;;3.05;2.40;;;;;;;20.19;70.71;98384.91;5025287;28;20033;-77
2022/06/25 02:45:52;;;;;;;7.15;2.70;;;;;;;20.22;70.58;98384.31;5006855;28;20037;-77
2022/06/25 02:48:18;;;;;;;3.30;2.38;;;;;;;20.23;70.58;98395.91;5018584;28;20045;-77
2022/06/25 02:50:43;;;;;;;3.20;2.90;;;;;;;20.12;70.88;98385.41;5022706;28;20048;-77
2022/06/25 02:53:09;;;;;;;3.72;2.65;;;;;;;20.25;70.67;98388.28;5024277;28;20127;-77
2022/06/25 03:01:02;;;;;;;3.70;2.67;;;;;;;19.99;70.77;98378.25;5019067;28;20353;-77
2022/06/25 03:03:28;;;;;;;2.95;2.58;;;;;;;20.43;69.66;98401.47;5022090;28;20065;-77
2022/06/25 03:05:53;;;;;;;2.88;2.65;;;;;;;20.33;69.76;98398.31;5021214;28;20079;-78
2022/06/25 03:08:18;;;;;;;3.20;2.90;;;;;;;20.40;69.51;98376.94;5002999;28;22291;-78
2022/06/25 03:10:44;;;;;;;3.83;2.65;;;;;;;20.53;69.27;98392.97;5018463;28;20037;-77
2022/06/25 03:13:10;;;;;;;2.88;2.58;;;;;;;20.40;69.96;98380.41;5024759;28;20025;-78
2022/06/25 03:15:36;;;;;;;2.70;2.50;;;;;;;20.45;69.19;98388.38;5004945;28;20416;-77
2022/06/25 03:18:01;;;;;;;3.80;2.78;;;;;;;20.38;69.79;98377.22;5010335;28;20088;-77
2022/06/25 03:20:27;;;;;;;2.75;2.55;;;;;;;20.27;70.29;98381.41;5024413;28;20028;-77
2022/06/25 03:22:52;;;;;;;2.28;2.08;;;;;;;20.21;70.69;98388.13;5038686;28;20037;-77
2022/06/25 03:25:18;;;;;;;2.92;2.72;;;;;;;20.17;70.75;98392.56;5022806;28;20059;-77
2022/06/25 03:27:43;;;;;;;3.20;2.90;;;;;;;20.06;70.79;98383.19;5008397;28;20044;-80
2022/06/25 03:30:09;;;;;;;6.00;2.63;;;;;;;19.98;71.54;98384.00;5022185;28;20141;-78
2022/06/25 03:32:34;;;;;;;3.40;3.00;;;;;;;19.96;71.56;98388.94;5024705;28;20041;-77
2022/06/25 03:35:00;;;;;;;3.42;2.63;;;;;;;20.03;71.49;98390.03;5006372;28;20053;-77
2022/06/25 03:37:25;;;;;;;3.00;2.67;;;;;;;19.89;72.07;98384.00;5024944;28;20392;-77
2022/06/25 03:39:51;;;;;;;3.85;2.80;;;;;;;19.27;75.34;98388.06;5006106;28;20145;-77
2022/06/25 03:42:16;;;;;;;4.55;2.95;;;;;;;19.25;75.44;98393.81;5023381;28;20083;-77
2022/06/25 03:44:41;;;;;;;6.32;3.13;;;;;;;19.58;73.33;98382.56;5001768;28;20035;-77
2022/06/25 03:47:07;;;;;;;7.60;3.35;;;;;;;18.54;78.82;98391.50;5021676;28;20742;-77
2022/06/25 03:49:32;;;;;;;3.97;3.08;;;;;;;19.01;76.22;98403.44;5009994;28;20076;-77
2022/06/25 03:51:57;;;;;;;3.17;2.28;;;;;;;19.82;72.03;98409.97;5022994;28;20042;-77
2022/06/25 03:54:23;;;;;;;3.78;2.90;;;;;;;19.89;71.81;98424.63;5020674;28;20037;-77
2022/06/25 03:56:48;;;;;;;4.60;2.55;;;;;;;19.59;73.38;98427.50;5026231;28;20034;-77
2022/06/25 03:59:14;;;;;;;4.57;3.67;;;;;;;19.32;74.72;98420.41;5029241;28;20041;-77
2022/06/25 04:01:39;;;;;;;4.55;3.22;;;;;;;19.22;75.50;98426.13;5027236;28;20323;-77
2022/06/25 04:04:05;;;;;;;4.10;2.65;;;;;;;19.39;74.34;98434.31;5029959;28;20025;-79
2022/06/25 04:06:31;;;;;;;2.65;2.53;;;;;;;19.23;74.96;98436.63;5024815;28;20037;-79
2022/06/25 04:08:56;;;;;;;2.80;2.60;;;;;;;19.76;72.09;98420.19;5028448;28;20040;-79
2022/06/25 04:11:21;;;;;;;3.72;2.90;;;;;;;19.71;72.87;98441.19;5021676;28;20034;-80
2022/06/25 04:13:47;;;;;;;8.27;4.18;;;;;;;19.63;73.60;98440.09;5010371;28;20413;-79
2022/06/25 04:16:12;;;;;;;4.20;3.25;;;;;;;19.62;72.90;98437.66;5027178;28;20026;-77
2022/06/25 04:18:38;;;;;;;4.70;2.60;;;;;;;19.57;73.13;98435.91;5026441;28;20103;-77
2022/06/25 04:21:03;;;;;;;4.53;3.00;;;;;;;19.35;74.14;98447.66;5008983;28;20036;-79
2022/06/25 04:23:28;;;;;;;4.43;3.53;;;;;;;19.33;75.25;98457.19;5009935;28;20553;-79
2022/06/25 04:25:54;;;;;;;5.25;3.15;;;;;;;19.60;73.00;98456.16;5027403;28;20458;-79
2022/06/25 04:31:04;;;;;;;3.92;3.50;;;;;;;19.51;73.65;98452.63;5027932;28;20036;-79
2022/06/25 04:33:29;;;;;;;5.13;3.47;;;;;;;19.68;72.97;98453.44;5009471;28;20029;-80
2022/06/25 04:35:55;;;;;;;3.92;3.00;;;;;;;19.96;72.07;98464.78;5027263;28;20548;-79
2022/06/25 04:38:20;;;;;;;4.10;3.22;;;;;;;19.73;73.16;98471.44;5022857;28;20032;-80
2022/06/25 04:40:45;;;;;;;3.35;3.05;;;;;;;19.83;72.86;98463.03;5038326;28;20033;-79
2022/06/25 04:43:11;;;;;;;4.50;2.72;;;;;;;20.01;71.81;98470.84;5027647;28;20044;-79
2022/06/25 04:45:36;;;;;;;3.97;3.30;;;;;;;20.01;71.76;98461.91;4992070;28;20124;-77
2022/06/25 04:48:03;;;;;;;2.85;2.65;;;;;;;20.03;71.93;98476.72;5023772;28;20413;-79
2022/06/25 04:50:29;;;;;;;6.38;5.00;;;;;;;20.09;71.99;98480.09;5024705;28;20045;-79
2022/06/25 04:52:55;;;;;;;3.58;2.95;;;;;;;20.08;72.55;98476.59;5025675;28;20025;-79
2022/06/25 04:55:20;;;;;;;5.07;3.72;;;;;;;20.06;72.17;98470.69;5023375;28;20045;-79
2022/06/25 04:57:46;;;;;;;3.20;2.90;;;;;;;20.14;71.61;98471.78;5007905;28;20037;-80
2022/06/25 05:00:12;;;;;;;4.47;3.22;;;;;;;20.14;71.38;98466.38;5005901;28;21772;-79
2022/06/25 05:02:38;;;;;;;3.15;2.85;;;;;;;20.34;71.14;98478.50;5019939;28;20033;-79
2022/06/25 05:05:04;;;;;;;5.90;3.55;;;;;;;20.32;71.33;98467.97;5010521;28;20030;-79
2022/06/25 05:07:30;;;;;;;3.47;3.22;;;;;;;20.34;71.36;98481.22;5026622;28;20132;-79
2022/06/25 05:09:55;;;;;;;7.50;4.35;;;;;;;20.23;71.61;98479.94;5034742;28;20112;-79
2022/06/25 05:15:06;;;;;;;5.53;3.70;;;;;;;20.29;71.54;98484.09;5026698;28;20091;-79
2022/06/25 05:17:31;;;;;;;4.53;3.03;;;;;;;20.09;72.64;98480.09;5031204;28;20029;-79
2022/06/25 05:19:56;;;;;;;5.15;3.28;;;;;;;20.24;71.75;98490.47;5021557;28;20120;-79
2022/06/25 05:22:23;;;;;;;4.85;3.42;;;;;;;20.19;71.91;98488.69;5027184;28;20045;-79
2022/06/25 05:24:49;;;;;;;6.43;3.30;;;;;;;20.25;71.86;98488.56;5013212;28;20547;-79
2022/06/25 05:27:14;;;;;;;3.65;3.33;;;;;;;19.87;73.86;98488.38;5024237;28;20136;-79
2022/06/25 05:29:40;;;;;;;4.30;2.92;;;;;;;20.03;72.26;98492.19;5040177;28;20033;-79
2022/06/25 05:32:05;;;;;;;3.60;3.20;;;;;;;20.15;72.96;98500.50;5010626;28;20083;-79
2022/06/25 05:34:31;;;;;;;3.30;3.03;;;;;;;20.23;72.00;98499.72;5008879;28;20045;-80
2022/06/25 05:36:56;;;;;;;6.22;3.40;;;;;;;20.39;71.07;98500.03;5020542;28;20022;-80
2022/06/25 05:39:22;;;;;;;4.45;3.47;;;;;;;19.99;73.48;98492.03;5019430;28;20193;-80
2022/06/25 05:41:47;;;;;;;4.38;3.33;;;;;;;20.32;71.60;98511.34;5012009;28;20037;-80
2022/06/25 05:44:13;;;;;;;5.28;3.50;;;;;;;20.33;71.88;98509.44;5023869;28;20037;-80
2022/06/25 05:46:38;;;;;;;3.08;2.75;;;;;;;20.43;71.47;98511.81;5008133;28;20046;-80
2022/06/25 05:49:03;;;;;;;3.53;2.92;;;;;;;20.42;71.53;98516.44;5020950;28;20405;-80
2022/06/25 05:51:29;;;;;;;5.50;3.30;;;;;;;20.29;72.78;98516.63;5027231;28;20036;-80
2022/06/25 05:53:54;;;;;;;3.25;2.85;;;;;;;20.52;70.90;98518.84;5022051;28;20030;-80
2022/06/25 05:56:19;;;;;;;6.40;3.35;;;;;;;20.67;70.61;98517.53;5030071;28;20136;-80
2022/06/25 05:58:45;;;;;;;3.85;3.25;;;;;;;20.59;70.69;98526.50;5030831;28;20036;-80
2022/06/25 06:01:10;;;;;;;3.90;2.72;;;;;;;20.71;70.50;98527.41;5023301;28;20091;-80
2022/06/25 06:03:36;;;;;;;4.80;3.00;;;;;;;20.54;71.33;98523.94;5023922;28;20280;-80
2022/06/25 06:06:01;;;;;;;4.85;3.05;;;;;;;20.48;71.70;98520.59;4989706;28;20025;-80
2022/06/25 06:08:26;;;;;;;4.57;3.00;;;;;;;20.67;71.05;98515.63;5027724;28;20037;-80
2022/06/25 06:10:52;;;;;;;3.85;2.85;;;;;;;20.82;70.57;98520.53;5022378;28;20021;-80
2022/06/25 06:13:17;;;;;;;4.20;2.67;;;;;;;20.83;70.30;98521.34;5011070;28;20470;-80
2022/06/25 06:15:43;;;;;;;3.38;2.90;;;;;;;20.87;70.32;98523.09;5029835;28;20117;-80
2022/06/25 06:18:08;;;;;;;3.03;2.70;;;;;;;20.90;69.99;98522.41;5022714;28;20124;-80
2022/06/25 06:20:33;;;;;;;4.57;2.85;;;;;;;20.95;69.28;98517.97;5006075;28;20099;-80
2022/06/25 06:22:59;;;;;;;4.05;2.88;;;;;;;21.06;71.62;98527.34;5009511;28;20041;-79
2022/06/25 06:25:24;;;;;;;5.18;2.88;;;;;;;21.26;68.97;98519.31;5026742;28;20036;-80
2022/06/25 06:27:50;;;;;;;4.20;2.42;;;;;;;21.37;69.99;98522.44;5025995;28;20033;-80
2022/06/25 06:30:15;;;;;;;3.38;2.83;;;;;;;21.56;68.67;98528.25;5010581;28;20041;-79
2022/06/25 06:32:41;;;;;;;2.90;2.70;;;;;;;21.74;68.15;98523.53;5006344;28;20077;-80
2022/06/25 06:35:07;;;;;;;3.13;2.53;;;;;;;21.75;67.78;98522.41;5008139;28;20041;-79
2022/06/25 06:37:32;;;;;;;2.55;2.30;;;;;;;21.86;67.84;98532.63;5024007;28;20025;-79
2022/06/25 06:39:58;;;;;;;4.28;2.65;;;;;;;21.90;67.58;98511.81;5023614;28;21264;-79
2022/06/25 06:42:24;;;;;;;3.60;2.78;;;;;;;22.08;67.19;98518.69;5026832;28;20076;-79
2022/06/25 06:44:49;;;;;;;2.60;2.40;;;;;;;22.08;67.19;98520.63;5005115;28;20535;-79
2022/06/25 06:47:14;;;;;;;2.47;2.30;;;;;;;22.06;67.02;98518.22;5022494;28;20029;-80
2022/06/25 06:49:40;;;;;;;2.63;2.40;;;;;;;22.05;67.23;98508.50;5003210;28;20029;-80
2022/06/25 06:52:06;;;;;;;3.22;2.28;;;;;;;22.15;67.07;98524.41;5020592;28;20540;-80
2022/06/25 06:54:31;;;;;;;2.80;2.60;;;;;;;22.19;66.26;98524.56;5024724;28;20052;-80
2022/06/25 06:56:56;;;;;;;2.90;2.15;;;;;;;22.24;68.50;98529.78;5007184;28;20484;-80
2022/06/25 06:59:22;;;;;;;3.38;2.30;;;;;;;22.38;66.15;98536.53;5023736;28;20044;-79
2022/06/25 07:01:47;;;;;;;2.97;2.60;;;;;;;22.28;65.98;98539.66;5024910;28;20083;-80
2022/06/25 07:04:13;;;;;;;4.03;2.45;;;;;;;22.26;66.19;98528.31;5001034;28;20041;-80
2022/06/25 07:06:38;;;;;;;10.38;2.85;;;;;;;22.39;65.48;98540.84;5023129;28;20041;-80
2022/06/25 07:09:03;;;;;;;4.05;1.75;;;;;;;22.32;65.93;98528.91;5023758;28;20043;-80
2022/06/25 07:11:30;;;;;;;5.97;2.25;;;;;;;22.44;65.25;98542.56;5000151;28;20128;-80
2022/06/25 07:13:57;;;;;;;5.38;2.50;;;;;;;22.19;66.19;98546.31;5024231;28;20037;-79
2022/06/25 07:16:23;;;;;;;21.48;3.33;;;;;;;22.23;65.72;98541.78;5025577;28;20025;-79
2022/06/25 07:18:48;;;;;;;7.80;3.33;;;;;;;22.34;65.72;98545.69;5024804;28;20031;-80
2022/06/25 07:21:14;;;;;;;7.25;2.40;;;;;;;22.11;67.20;98545.22;5022652;28;20067;-80
2022/06/25 07:23:40;;;;;;;8.27;2.50;;;;;;;22.17;65.78;98532.25;5005881;28;20485;-79
2022/06/25 07:26:05;;;;;;;2.83;2.15;;;;;;;22.06;66.01;98545.41;5025946;28;20458;-79
2022/06/25 07:28:31;;;;;;;5.43;3.03;;;;;;;22.03;67.69;98521.63;5028021;28;20485;-79
2022/06/25 07:30:56;;;;;;;2.47;2.28;;;;;;;22.35;64.87;98526.31;5007771;28;20021;-77
2022/06/25 07:33:22;;;;;;;6.40;2.90;;;;;;;22.41;65.64;98539.72;5025511;28;20080;-79
2022/06/25 07:35:47;;;;;;;7.97;2.72;;;;;;;22.48;64.77;98537.25;5024247;28;20037;-80
2022/06/25 07:38:12;;;;;;;8.98;2.83;;;;;;;22.45;65.26;98538.72;5028421;28;20400;-80
2022/06/25 07:40:38;;;;;;;3.75;2.55;;;;;;;22.39;64.91;98543.56;5026952;28;20083;-80
2022/06/25 07:43:03;;;;;;;3.13;2.55;;;;;;;22.29;66.32;98543.97;5029066;28;20405;-80
2022/06/25 07:45:29;;;;;;;7.40;2.65;;;;;;;22.32;65.15;98534.34;5037583;28;20041;-80
2022/06/25 07:47:54;;;;;;;7.07;2.67;;;;;;;22.57;65.15;98543.41;5026921;28;20033;-80
2022/06/25 07:53:04;;;;;;;4.45;2.53;;;;;;;22.52;64.25;98543.63;5027659;28;20087;-77
2022/06/25 07:55:29;;;;;;;2.78;2.58;;;;;;;22.26;65.22;98533.75;5028379;28;20033;-80
2022/06/25 07:57:55;;;;;;;3.00;2.40;;;;;;;22.53;64.08;98543.28;5022620;28;20034;-80
2022/06/25 08:00:20;;;;;;;4.70;2.55;;;;;;;22.44;64.05;98536.31;5024838;28;20033;-80
2022/06/25 08:02:46;;;;;;;5.22;2.60;;;;;;;22.49;63.59;98523.31;5021670;28;20465;-80
2022/06/25 08:05:11;;;;;;;5.15;2.45;;;;;;;22.56;63.64;98539.09;5007862;28;20213;-80
2022/06/25 08:07:37;;;;;;;4.65;2.53;;;;;;;22.21;66.69;98531.22;4990020;28;20104;-80
2022/06/25 08:10:03;;;;;;;14.40;3.65;;;;;;;22.24;65.18;98538.72;5026475;28;20045;-80
2022/06/25 08:12:28;;;;;;;3.25;2.38;;;;;;;22.30;64.21;98531.94;5025458;28;20034;-80
2022/06/25 08:14:54;;;;;;;4.82;2.85;;;;;;;22.46;64.03;98534.88;5025387;28;20397;-80
2022/06/25 08:17:20;;;;;;;3.55;2.20;;;;;;;22.51;63.28;98539.31;5027789;28;20022;-80
2022/06/25 08:19:45;;;;;;;2.50;2.05;;;;;;;22.63;63.56;98542.91;4993711;28;20099;-80
2022/06/25 08:22:11;;;;;;;5.13;2.40;;;;;;;22.53;64.01;98537.84;5023295;28;20076;-80
2022/06/25 08:24:36;;;;;;;3.17;2.25;;;;;;;22.54;64.53;98539.44;5023478;28;20041;-80
2022/06/25 08:27:02;;;;;;;2.95;2.40;;;;;;;22.73;63.59;98544.41;5008815;28;20552;-80
2022/06/25 08:29:27;;;;;;;4.85;2.60;;;;;;;22.81;64.46;98543.53;5021102;28;20112;-80
2022/06/25 08:31:53;;;;;;;7.63;2.45;;;;;;;22.79;62.59;98545.78;5018573;28;21306;-80
2022/06/25 08:34:19;;;;;;;5.70;2.70;;;;;;;22.83;62.04;98544.78;5005337;28;20044;-80
2022/06/25 08:36:44;;;;;;;6.38;2.33;;;;;;;22.88;61.99;98541.88;5022694;28;20033;-80
2022/06/25 08:39:09;;;;;;;1.88;1.77;;;;;;;22.98;60.96;98541.41;5009671;28;20033;-80
2022/06/25 08:41:35;;;;;;;4.35;2.10;;;;;;;23.17;61.00;98559.16;5024040;28;20122;-80
2022/06/25 08:44:01;;;;;;;6.03;2.30;;;;;;;23.07;61.25;98547.56;5022165;28;20037;-80
2022/06/25 08:46:28;;;;;;;7.45;2.60;;;;;;;23.04;61.35;98545.50;5042830;28;20065;-80
2022/06/25 08:48:56;;;;;;;16.27;3.83;;;;;;;23.07;61.61;98538.59;5017482;28;20021;-80
2022/06/25 08:51:26;;;;;;;2.45;1.92;;;;;;;23.23;61.88;98546.91;5031756;28;20087;-80
2022/06/25 08:53:52;;;;;;;2.40;1.65;;;;;;;23.39;60.17;98545.16;5022733;28;20479;-80
2022/06/25 08:56:19;;;;;;;6.30;1.85;;;;;;;23.46;60.32;98551.63;5027757;28;20566;-80
2022/06/25 08:58:44;;;;;;;5.35;2.22;;;;;;;23.32;60.70;98540.25;5026916;28;20033;-80
2022/06/25 09:01:10;;;;;;;8.00;2.58;;;;;;;23.44;61.27;98551.16;5015585;28;20199;-80
2022/06/25 09:03:39;;;;;;;106.05;13.70;;;;;;;23.45;60.58;98533.72;5027453;28;20037;-80
2022/06/25 09:06:14;;;;;;;143.57;16.13;;;;;;;23.58;60.35;98548.13;5021751;28;20036;-80
2022/06/25 09:08:41;;;;;;;67.35;9.27;;;;;;;23.57;59.39;98544.59;5025279;28;20674;-80
2022/06/25 09:11:06;;;;;;;38.13;4.95;;;;;;;23.72;58.98;98537.69;5022049;28;20045;-80
2022/06/25 09:13:32;;;;;;;26.75;4.07;;;;;;;24.12;58.15;98544.00;5003748;28;20529;-80
2022/06/25 09:15:57;;;;;;;5.60;2.38;;;;;;;24.17;57.38;98548.44;5025642;28;20030;-80
2022/06/25 09:18:22;;;;;;;14.50;2.42;;;;;;;24.07;57.12;98549.69;5004300;28;20091;-79
2022/06/25 09:21:08;;;;;;;5.75;2.10;;;;;;;24.32;57.14;98544.97;5020655;28;20087;-80
2022/06/25 09:23:54;;;;;;;16.63;2.47;;;;;;;24.48;57.11;98540.38;5007538;28;20033;-80
2022/06/25 09:26:19;;;;;;;4.97;1.98;;;;;;;24.44;57.14;98542.22;5018666;28;20035;-80
2022/06/25 09:28:44;;;;;;;2.08;1.85;;;;;;;24.56;57.68;98537.50;5022981;28;20034;-77
2022/06/25 09:31:10;;;;;;;11.48;3.03;;;;;;;24.78;56.45;98536.19;5025224;28;20401;-77
2022/06/25 09:33:38;;;;;;;46.97;9.30;;;;;;;24.33;57.65;98535.66;5026634;28;20032;-77
2022/06/25 09:36:06;;;;;;;15.55;5.03;;;;;;;24.38;57.44;98538.13;5019504;28;20041;-77
2022/06/25 09:38:32;;;;;;;10.80;3.25;;;;;;;24.14;57.39;98516.38;5025886;28;20025;-77
2022/06/25 09:40:59;;;;;;;8.48;2.25;;;;;;;24.37;57.91;98537.34;5024053;28;20032;-77
2022/06/25 09:43:26;;;;;;;23.80;3.95;;;;;;;24.45;57.10;98533.69;5024243;28;20385;-80
2022/06/25 09:45:56;;;;;;;148.48;35.67;;;;;;;24.67;56.89;98526.06;5020241;28;20059;-77
2022/06/25 09:48:26;;;;;;;1950.90;579.17;;;;;;;24.81;56.43;98531.97;5008852;28;20033;-80
2022/06/25 09:51:05;;;;;;;1999.90;675.90;;;;;;;25.06;57.19;98536.13;5025057;28;20016;-80
2022/06/25 09:53:34;;;;;;;1999.90;603.67;;;;;;;25.13;56.03;98536.31;5025095;28;20057;-78
2022/06/25 09:56:02;;;;;;;1551.05;468.35;;;;;;;25.37;55.17;98535.38;5024081;28;20059;-78
2022/06/25 09:58:30;;;;;;;860.75;272.00;;;;;;;25.59;55.05;98530.09;5007029;28;20036;-80
2022/06/25 10:00:55;;;;;;;1702.45;492.27;;;;;;;25.70;54.07;98542.09;5022930;28;20172;-77
2022/06/25 10:03:22;;;;;;;869.45;258.73;;;;;;;25.71;53.52;98540.13;5025458;28;20436;-79
2022/06/25 10:05:48;;;;;;;633.63;189.88;;;;;;;25.93;53.12;98534.81;5023934;28;20040;-77
2022/06/25 10:08:15;;;;;;;120.00;30.95;;;;;;;26.17;53.49;98536.53;5023731;28;20025;-80
2022/06/25 10:10:44;;;;;;;587.97;157.32;;;;;;;26.31;52.38;98534.09;5022810;28;20493;-79
2022/06/25 10:13:10;;;;;;;356.60;98.38;;;;;;;26.36;52.83;98527.56;5024013;28;20021;-79
2022/06/25 10:15:37;;;;;;;150.98;41.72;;;;;;;26.38;53.16;98525.25;5024862;28;20384;-79
2022/06/25 10:18:05;;;;;;;243.07;64.32;;;;;;;26.38;53.12;98531.53;5025469;28;20022;-79
2022/06/25 10:20:31;;;;;;;169.32;43.35;;;;;;;26.28;52.86;98525.78;5021236;28;20489;-79
2022/06/25 10:22:59;;;;;;;52.22;14.73;;;;;;;26.29;53.04;98520.00;5023898;28;20029;-79
2022/06/25 10:25:27;;;;;;;116.20;31.33;;;;;;;26.27;52.95;98522.28;5025039;28;20116;-79
2022/06/25 10:28:05;;;;;;;5.60;2.72;;;;;;;25.97;53.81;98518.47;5008257;28;20025;-79
2022/06/25 10:30:44;;;;;;;27.88;9.35;;;;;;;26.08;53.43;98511.28;5023760;28;20456;-79
2022/06/25 10:33:10;;;;;;;32.28;11.15;;;;;;;26.16;53.09;98521.28;5009912;28;20140;-79
2022/06/25 10:35:38;;;;;;;38.03;9.82;;;;;;;26.18;53.02;98513.50;5022187;28;20034;-79
2022/06/25 10:38:11;;;;;;;47.13;13.15;;;;;;;26.33;53.11;98515.38;5026045;28;20099;-79
2022/06/25 10:40:52;;;;;;;34.72;11.25;;;;;;;26.70;52.13;98516.50;5006697;28;20414;-79
2022/06/25 10:43:46;;;;;;;18.17;6.57;;;;;;;26.49;52.70;98496.94;5040315;28;20028;-79
2022/06/25 10:46:24;;;;;;;9.13;3.63;;;;;;;26.92;51.62;98504.03;5022704;28;20025;-79
2022/06/25 10:49:10;;;;;;;2.05;1.92;;;;;;;27.00;51.26;98502.19;5020846;28;20021;-79
2022/06/25 10:51:38;;;;;;;18.98;6.47;;;;;;;27.26;51.06;98497.56;5023858;28;20055;-79
2022/06/25 10:54:05;;;;;;;4.45;2.30;;;;;;;27.14;51.19;98489.56;5046230;28;20036;-79
2022/06/25 10:56:45;;;;;;;5.47;2.17;;;;;;;27.40;51.45;98488.81;5007069;28;20042;-80
2022/06/25 10:59:34;;;;;;;14.88;4.50;;;;;;;27.47;51.03;98499.91;5026851;28;20037;-79
2022/06/25 11:02:08;;;;;;;6.65;2.97;;;;;;;27.63;50.57;98497.78;5038371;28;20071;-79
2022/06/25 11:04:35;;;;;;;2.25;1.67;;;;;;;27.75;48.77;98494.06;5024162;28;20033;-80
2022/06/25 11:07:07;;;;;;;5.45;3.03;;;;;;;27.78;49.79;98494.13;5028825;28;20056;-79
2022/06/25 11:09:32;;;;;;;6.60;3.17;;;;;;;27.86;49.54;98501.28;5039388;28;20108;-79
2022/06/25 11:11:59;;;;;;;6.22;1.55;;;;;;;27.60;48.98;98486.78;5030813;28;20179;-79
2022/06/25 11:14:25;;;;;;;2.15;2.00;;;;;;;27.47;49.97;98494.44;5027538;28;20033;-80
2022/06/25 11:16:52;;;;;;;2.10;1.88;;;;;;;28.18;48.83;98488.81;5027698;28;20022;-79
2022/06/25 11:19:18;;;;;;;4.72;1.65;;;;;;;28.23;47.56;98484.94;5028524;28;20515;-80
2022/06/25 11:21:45;;;;;;;1.63;1.10;;;;;;;28.18;46.16;98485.25;5028435;28;20038;-80
2022/06/25 11:24:17;;;;;;;2.75;1.30;;;;;;;28.37;46.91;98481.59;5013250;28;20397;-80
2022/06/25 11:29:33;;;;;;;3.60;1.73;;;;;;;28.79;46.91;98479.31;5028476;28;20080;-80
2022/06/25 11:31:59;;;;;;;5.00;1.83;;;;;;;28.67;46.80;98479.59;5036386;28;20037;-80
2022/06/25 11:34:26;;;;;;;4.80;1.90;;;;;;;28.40;46.91;98478.06;5024240;28;20025;-80
2022/06/25 11:37:01;;;;;;;4.40;2.17;;;;;;;28.41;45.83;98485.16;5010521;28;20052;-80
2022/06/25 11:39:28;;;;;;;1.80;1.20;;;;;;;28.53;45.60;98476.66;5032225;28;20025;-79
2022/06/25 11:41:54;;;;;;;1.42;1.10;;;;;;;28.49;45.30;98476.63;5029419;28;20080;-80
2022/06/25 11:44:19;;;;;;;13.15;1.92;;;;;;;28.31;45.04;98475.63;5024825;28;20112;-80
2022/06/25 11:46:47;;;;;;;4.13;1.80;;;;;;;28.15;45.63;98467.59;5026551;28;20136;-79
2022/06/25 11:49:13;;;;;;;1.08;1.00;;;;;;;28.06;45.34;98471.78;5022663;28;20029;-80
2022/06/25 11:51:50;;;;;;;1.50;1.40;;;;;;;28.66;45.89;98478.00;5008810;28;20320;-80